Time;durP1;ratioP1;P1;durP2;ratioP2;P2;SDS_P1;SDS_P2;PMS_P1;PMS_P2;Temp;Humidity;BMP_temperature;BMP_pressure;BME280_temperature;BME280_humidity;BME280_pressure;Samples;Min_cycle;Max_cycle;Signal;HPM_P1;HPM_P2
2022/08/29 00:01:45;;;;;;;21.42;16.02;;;14.70;80.30;;;;;;5074272;28;20049;-67
2022/08/29 00:04:11;;;;;;;26.02;19.00;;;14.70;80.10;;;;;;5072132;28;20048;-66
2022/08/29 00:06:36;;;;;;;26.20;18.67;;;14.70;79.30;;;;;;5068710;28;20063;-65
2022/08/29 00:09:02;;;;;;;20.38;15.75;;;14.80;79.90;;;;;;5068027;28;20027;-66
2022/08/29 00:11:28;;;;;;;26.25;17.83;;;14.70;80.10;;;;;;5063864;28;20063;-66
2022/08/29 00:13:55;;;;;;;28.48;19.42;;;14.70;80.10;;;;;;5064050;28;20029;-66
2022/08/29 00:16:25;;;;;;;20.58;16.80;;;14.70;80.20;;;;;;5067661;28;20086;-65
2022/08/29 00:18:57;;;;;;;25.42;19.40;;;14.60;80.20;;;;;;5065440;28;20024;-65
2022/08/29 00:21:28;;;;;;;25.40;17.13;;;14.60;80.20;;;;;;5065671;28;20055;-66
2022/08/29 00:23:54;;;;;;;26.42;18.23;;;14.50;80.10;;;;;;5064387;28;20028;-65
2022/08/29 00:26:23;;;;;;;23.73;18.38;;;14.50;79.50;;;;;;5067240;28;20037;-65
2022/08/29 00:28:49;;;;;;;22.98;18.17;;;14.50;79.30;;;;;;5066081;28;20016;-66
2022/08/29 00:31:15;;;;;;;24.10;18.30;;;14.50;79.90;;;;;;5066154;28;20036;-65
2022/08/29 00:33:42;;;;;;;23.58;17.95;;;14.50;79.40;;;;;;5065489;28;20019;-66
2022/08/29 00:36:08;;;;;;;24.92;19.42;;;14.50;79.90;;;;;;5065916;28;20032;-66
2022/08/29 00:38:35;;;;;;;24.95;18.23;;;14.40;79.80;;;;;;5070353;28;20032;-65
2022/08/29 00:41:02;;;;;;;27.85;21.00;;;14.40;79.40;;;;;;5068520;28;20033;-66
2022/08/29 00:43:32;;;;;;;27.50;20.52;;;14.40;79.90;;;;;;5069384;28;20349;-66
2022/08/29 00:46:40;;;;;;;22.55;18.15;;;14.30;80.00;;;;;;5067031;28;20032;-66
2022/08/29 00:49:40;;;;;;;20.60;15.98;;;14.20;79.70;;;;;;5066879;28;20031;-66
2022/08/29 00:52:36;;;;;;;27.30;18.90;;;14.20;79.20;;;;;;5067435;28;20409;-66
2022/08/29 00:55:08;;;;;;;20.92;16.83;;;14.20;79.10;;;;;;5064566;28;20108;-65
2022/08/29 00:57:38;;;;;;;32.92;21.23;;;14.20;79.10;;;;;;5066001;28;20371;-66
2022/08/29 01:00:06;;;;;;;30.90;22.17;;;14.20;78.80;;;;;;5067832;28;20037;-65
2022/08/29 01:02:32;;;;;;;27.17;20.25;;;14.20;78.30;;;;;;5069955;28;20025;-66
2022/08/29 01:05:02;;;;;;;25.23;18.38;;;14.20;78.40;;;;;;5064448;28;20048;-65
2022/08/29 01:07:29;;;;;;;24.60;17.88;;;14.20;78.30;;;;;;5070065;28;20291;-66
2022/08/29 01:09:54;;;;;;;23.17;16.45;;;14.20;78.10;;;;;;5066495;28;20025;-66
2022/08/29 01:12:22;;;;;;;21.38;17.08;;;14.10;78.30;;;;;;5068389;28;20027;-66
2022/08/29 01:14:57;;;;;;;21.08;16.77;;;14.10;78.50;;;;;;5065882;28;20021;-65
2022/08/29 01:17:34;;;;;;;23.17;19.48;;;14.00;78.50;;;;;;5070001;28;20064;-65
2022/08/29 01:20:14;;;;;;;24.65;19.08;;;14.00;78.50;;;;;;5069188;28;20052;-66
2022/08/29 01:23:01;;;;;;;22.67;16.85;;;13.90;79.10;;;;;;5068494;28;20033;-66
2022/08/29 01:25:33;;;;;;;23.20;17.65;;;13.90;78.70;;;;;;5064559;28;20082;-66
2022/08/29 01:28:25;;;;;;;22.25;17.40;;;13.80;78.80;;;;;;5074447;28;20048;-67
2022/08/29 01:31:27;;;;;;;23.63;19.05;;;13.80;78.50;;;;;;5072455;28;20027;-67
2022/08/29 01:33:56;;;;;;;23.92;17.67;;;13.80;78.80;;;;;;5072682;28;20024;-66
2022/08/29 01:36:31;;;;;;;29.58;19.33;;;13.80;78.60;;;;;;5075656;28;20060;-66
2022/08/29 01:38:57;;;;;;;27.17;18.50;;;13.80;78.60;;;;;;5074496;28;20038;-66
2022/08/29 01:41:23;;;;;;;18.90;15.65;;;13.80;77.90;;;;;;5075679;28;20036;-67
2022/08/29 01:43:54;;;;;;;26.60;19.25;;;13.80;78.30;;;;;;5077333;28;20032;-67
2022/08/29 01:46:28;;;;;;;20.52;16.65;;;13.80;78.30;;;;;;5074764;28;20041;-66
2022/08/29 01:48:54;;;;;;;;;;;13.80;78.10;;;;;;5075585;28;20090;-66
2022/08/29 01:51:20;;;;;;;26.63;18.02;;;13.90;77.80;;;;;;5075458;28;20327;-67
2022/08/29 01:53:46;;;;;;;28.42;20.38;;;13.90;78.40;;;;;;5068074;28;20128;-66
2022/08/29 01:56:20;;;;;;;17.90;15.25;;;13.80;79.10;;;;;;5075386;28;20115;-66
2022/08/29 01:58:48;;;;;;;23.30;17.95;;;13.80;78.90;;;;;;5075122;28;20024;-66
2022/08/29 02:01:17;;;;;;;27.45;20.98;;;13.80;78.60;;;;;;5074312;28;20046;-66
2022/08/29 02:03:42;;;;;;;19.20;16.00;;;13.80;79.20;;;;;;5075185;28;20037;-66
2022/08/29 02:06:09;;;;;;;23.15;19.08;;;13.80;79.70;;;;;;5077200;28;20039;-66
2022/08/29 02:08:40;;;;;;;25.08;19.15;;;13.70;79.50;;;;;;5071610;28;20031;-66
2022/08/29 02:11:09;;;;;;;21.92;15.52;;;13.70;79.00;;;;;;5072157;28;20025;-66
2022/08/29 02:13:39;;;;;;;27.52;20.38;;;13.70;79.20;;;;;;5074610;28;20028;-66
2022/08/29 02:16:05;;;;;;;24.83;16.85;;;13.70;78.60;;;;;;5074315;28;20372;-67
2022/08/29 02:18:32;;;;;;;22.90;17.33;;;13.70;79.00;;;;;;5071952;28;20218;-66
2022/08/29 02:20:58;;;;;;;20.55;16.33;;;13.70;78.30;;;;;;5075508;28;20105;-67
2022/08/29 02:23:25;;;;;;;27.35;20.52;;;13.70;78.80;;;;;;5069498;28;20130;-67
2022/08/29 02:25:51;;;;;;;26.45;19.05;;;13.70;79.60;;;;;;5074686;28;20020;-66
2022/08/29 02:28:17;;;;;;;30.13;22.10;;;13.60;80.10;;;;;;5074462;28;20032;-67
2022/08/29 02:30:47;;;;;;;20.52;16.23;;;13.50;80.50;;;;;;5074484;28;20028;-67
2022/08/29 02:33:14;;;;;;;18.98;15.18;;;13.40;79.10;;;;;;5071764;28;20359;-66
2022/08/29 02:35:40;;;;;;;22.98;19.98;;;13.40;79.10;;;;;;5074321;28;20064;-66
2022/08/29 02:38:06;;;;;;;26.73;20.48;;;13.50;79.00;;;;;;5071726;28;20043;-66
2022/08/29 02:40:32;;;;;;;28.45;21.10;;;13.40;79.40;;;;;;5070268;28;20032;-67
2022/08/29 02:42:59;;;;;;;21.25;17.65;;;13.40;79.30;;;;;;5074144;28;20029;-66
2022/08/29 02:45:28;;;;;;;27.02;19.77;;;13.40;78.80;;;;;;5071976;28;20032;-66
2022/08/29 02:47:53;;;;;;;29.83;21.48;;;13.40;78.30;;;;;;5072685;28;20024;-67
2022/08/29 02:50:20;;;;;;;27.00;20.30;;;13.30;79.00;;;;;;5074047;28;20028;-66
2022/08/29 02:52:46;;;;;;;29.42;22.17;;;13.40;77.20;;;;;;5072519;28;20040;-67
2022/08/29 02:55:15;;;;;;;31.88;22.20;;;13.50;77.40;;;;;;5074784;28;20028;-67
2022/08/29 02:57:42;;;;;;;28.00;22.98;;;13.60;77.40;;;;;;5074559;28;20131;-66
2022/08/29 03:00:11;;;;;;;25.40;19.70;;;13.60;77.40;;;;;;5073810;28;20107;-66
2022/08/29 03:02:37;;;;;;;27.08;20.73;;;13.60;77.80;;;;;;5073891;28;20048;-67
2022/08/29 03:05:04;;;;;;;26.38;19.77;;;13.60;77.30;;;;;;5073968;28;20049;-67
2022/08/29 03:07:30;;;;;;;27.02;21.27;;;13.50;77.60;;;;;;5072783;28;20028;-67
2022/08/29 03:09:56;;;;;;;24.10;18.45;;;13.50;78.10;;;;;;5074697;28;20032;-67
2022/08/29 03:12:22;;;;;;;24.38;20.05;;;13.40;77.70;;;;;;5072771;28;20443;-67
2022/08/29 03:14:47;;;;;;;25.60;19.50;;;13.40;77.20;;;;;;5074936;28;20017;-66
2022/08/29 03:17:13;;;;;;;26.52;19.60;;;13.30;77.30;;;;;;5073108;28;20368;-67
2022/08/29 03:19:38;;;;;;;24.85;19.88;;;13.30;77.70;;;;;;5073879;28;20033;-67
2022/08/29 03:22:04;;;;;;;29.65;20.77;;;13.30;77.10;;;;;;5073042;28;20387;-67
2022/08/29 03:24:30;;;;;;;30.95;22.48;;;13.30;76.80;;;;;;5066144;28;20524;-67
2022/08/29 03:26:56;;;;;;;27.90;22.05;;;13.40;76.50;;;;;;5074497;28;20409;-66
2022/08/29 03:29:22;;;;;;;28.98;20.65;;;13.50;76.10;;;;;;5073927;28;20032;-67
2022/08/29 03:31:47;;;;;;;26.75;21.52;;;13.60;76.30;;;;;;5074683;28;20078;-66
2022/08/29 03:34:13;;;;;;;24.88;19.90;;;13.60;76.60;;;;;;5072583;28;20021;-67
2022/08/29 03:36:40;;;;;;;25.90;20.85;;;13.70;76.30;;;;;;5073821;28;20024;-66
2022/08/29 03:39:06;;;;;;;29.30;22.20;;;13.70;76.70;;;;;;5071893;28;20035;-66
2022/08/29 03:41:32;;;;;;;27.27;21.75;;;13.70;77.10;;;;;;5071649;28;20054;-66
2022/08/29 03:43:58;;;;;;;26.45;22.27;;;13.70;76.90;;;;;;5073277;28;20087;-66
2022/08/29 03:46:25;;;;;;;30.42;22.23;;;13.70;77.10;;;;;;5074144;28;20426;-66
2022/08/29 03:48:50;;;;;;;28.55;20.67;;;13.70;77.00;;;;;;5071972;28;20440;-66
2022/08/29 03:51:19;;;;;;;36.55;21.40;;;13.70;77.20;;;;;;5072626;28;20020;-66
2022/08/29 03:53:45;;;;;;;27.83;21.02;;;13.70;77.30;;;;;;5069897;28;20060;-65
2022/08/29 03:56:11;;;;;;;27.52;19.92;;;13.60;77.60;;;;;;5072801;28;20174;-68
2022/08/29 03:58:38;;;;;;;27.25;21.25;;;13.60;77.30;;;;;;5074393;28;20099;-67
2022/08/29 04:01:04;;;;;;;29.88;19.95;;;13.60;77.10;;;;;;5073919;28;20474;-67
2022/08/29 04:03:29;;;;;;;28.33;20.35;;;13.60;77.00;;;;;;5071363;28;20072;-68
2022/08/29 04:05:55;;;;;;;27.10;20.02;;;13.60;77.10;;;;;;5072980;28;20043;-67
2022/08/29 04:08:21;;;;;;;27.48;21.02;;;13.60;77.00;;;;;;5071374;28;20028;-66
2022/08/29 04:10:46;;;;;;;27.73;20.90;;;13.60;76.90;;;;;;5073501;28;20035;-67
2022/08/29 04:13:12;;;;;;;31.27;22.85;;;13.60;77.20;;;;;;5076505;28;20024;-67
2022/08/29 04:15:40;;;;;;;29.02;22.17;;;13.60;77.20;;;;;;5074835;28;20020;-67
2022/08/29 04:18:07;;;;;;;28.73;23.00;;;13.60;77.30;;;;;;5075477;28;20024;-67
2022/08/29 04:20:36;;;;;;;25.80;19.95;;;13.70;77.30;;;;;;5075617;28;20384;-67
2022/08/29 04:23:02;;;;;;;26.42;20.80;;;13.70;77.50;;;;;;5077046;28;20032;-67
2022/08/29 04:25:35;;;;;;;26.23;19.05;;;13.70;77.60;;;;;;5069866;28;20036;-66
2022/08/29 04:28:05;;;;;;;31.83;23.42;;;13.70;77.60;;;;;;5074794;28;20032;-66
2022/08/29 04:30:31;;;;;;;27.88;19.75;;;13.60;77.50;;;;;;5071397;28;20032;-67
2022/08/29 04:32:57;;;;;;;27.77;20.30;;;13.70;77.50;;;;;;5076601;28;20029;-67
2022/08/29 04:35:23;;;;;;;28.50;20.77;;;13.60;77.90;;;;;;5076514;28;20020;-66
2022/08/29 04:37:49;;;;;;;25.35;19.95;;;13.60;77.60;;;;;;5076757;28;20063;-66
2022/08/29 04:40:18;;;;;;;27.42;19.90;;;13.60;77.50;;;;;;5071900;28;20032;-66
2022/08/29 04:42:45;;;;;;;27.75;18.73;;;13.70;77.70;;;;;;5073317;28;20017;-66
2022/08/29 04:45:13;;;;;;;25.23;18.45;;;13.70;77.50;;;;;;5074876;28;20024;-66
2022/08/29 04:47:40;;;;;;;28.08;19.90;;;13.80;77.60;;;;;;5075766;28;20103;-66
2022/08/29 04:50:09;;;;;;;24.20;19.38;;;13.80;77.90;;;;;;5072204;28;20444;-67
2022/08/29 04:52:35;;;;;;;22.73;18.17;;;13.80;78.10;;;;;;5074668;28;20021;-67
2022/08/29 04:55:02;;;;;;;24.23;18.50;;;13.70;78.60;;;;;;5073431;28;20428;-66
2022/08/29 04:57:27;;;;;;;29.00;20.80;;;13.70;78.50;;;;;;5076719;28;20029;-66
2022/08/29 05:00:00;;;;;;;30.13;19.45;;;13.70;78.70;;;;;;5075079;28;20103;-67
2022/08/29 05:02:29;;;;;;;23.70;19.05;;;13.70;78.10;;;;;;5077367;28;20032;-67
2022/08/29 05:04:55;;;;;;;28.98;20.83;;;13.70;78.20;;;;;;5073358;28;20045;-66
2022/08/29 05:07:24;;;;;;;28.73;19.25;;;13.70;78.70;;;;;;5076912;28;20032;-66
2022/08/29 05:09:57;;;;;;;26.83;19.88;;;13.70;78.70;;;;;;5074121;28;20036;-67
2022/08/29 05:12:24;;;;;;;24.08;18.38;;;13.70;78.60;;;;;;5077149;28;20033;-66
2022/08/29 05:14:50;;;;;;;22.20;17.52;;;13.70;78.90;;;;;;5072305;28;20108;-66
2022/08/29 05:17:16;;;;;;;21.75;16.98;;;13.60;79.30;;;;;;5072687;28;20112;-65
2022/08/29 05:19:42;;;;;;;23.40;17.63;;;13.60;79.30;;;;;;5076781;28;20123;-67
2022/08/29 05:22:09;;;;;;;23.88;19.00;;;13.60;79.10;;;;;;5075016;28;20033;-66
2022/08/29 05:24:36;;;;;;;19.20;16.65;;;13.60;79.20;;;;;;5073842;28;20032;-67
2022/08/29 05:27:10;;;;;;;24.95;20.23;;;13.60;78.70;;;;;;5076614;28;20033;-66
2022/08/29 05:29:41;;;;;;;22.42;16.70;;;13.60;79.30;;;;;;5070880;28;20130;-66
2022/08/29 05:32:09;;;;;;;24.60;17.92;;;13.70;77.80;;;;;;5073343;28;20027;-66
2022/08/29 05:34:37;;;;;;;26.65;20.02;;;13.70;78.10;;;;;;5075678;28;20032;-66
2022/08/29 05:37:08;;;;;;;22.98;18.75;;;13.70;78.50;;;;;;5076357;28;20025;-66
2022/08/29 05:39:35;;;;;;;25.45;19.08;;;13.70;79.50;;;;;;5073363;28;20436;-66
2022/08/29 05:42:01;;;;;;;24.73;18.98;;;13.60;79.00;;;;;;5076342;28;20032;-67
2022/08/29 05:44:31;;;;;;;22.35;16.77;;;13.70;78.60;;;;;;5070831;28;20035;-65
2022/08/29 05:46:57;;;;;;;22.58;17.80;;;13.80;78.20;;;;;;5067852;28;20322;-65
2022/08/29 05:49:23;;;;;;;23.38;18.85;;;13.90;78.10;;;;;;5075142;28;20035;-66
2022/08/29 05:51:55;;;;;;;21.77;18.30;;;14.10;78.00;;;;;;5072991;28;20044;-65
2022/08/29 05:54:22;;;;;;;23.60;19.60;;;14.20;77.00;;;;;;5072785;28;20434;-67
2022/08/29 05:56:48;;;;;;;25.00;20.75;;;14.30;77.40;;;;;;5075364;28;20032;-67
2022/08/29 05:59:16;;;;;;;23.83;19.38;;;14.40;77.30;;;;;;5076231;28;20035;-67
2022/08/29 06:01:42;;;;;;;19.83;17.70;;;14.60;77.10;;;;;;5072842;28;20031;-66
2022/08/29 06:04:08;;;;;;;22.17;17.25;;;14.60;77.40;;;;;;5075861;28;20591;-66
2022/08/29 06:06:34;;;;;;;21.20;17.75;;;14.70;77.50;;;;;;5072377;28;20039;-66
2022/08/29 06:09:00;;;;;;;19.55;15.80;;;14.80;77.90;;;;;;5074198;28;20330;-67
2022/08/29 06:11:34;;;;;;;19.58;17.42;;;14.90;77.70;;;;;;5076448;28;20656;-66
2022/08/29 06:14:00;;;;;;;;;;;15.10;78.00;;;;;;5071230;28;20473;-67
2022/08/29 06:16:28;;;;;;;23.27;18.13;;;15.20;78.20;;;;;;5076310;28;20244;-66
2022/08/29 06:18:54;;;;;;;20.27;17.45;;;15.20;78.60;;;;;;5071940;28;20386;-67
2022/08/29 06:21:20;;;;;;;20.60;17.25;;;15.30;79.10;;;;;;5074132;28;20024;-66
2022/08/29 06:23:46;;;;;;;28.35;20.90;;;15.50;79.20;;;;;;5074700;28;20294;-66
2022/08/29 06:26:13;;;;;;;28.60;22.83;;;15.70;79.00;;;;;;5074462;28;20033;-66
2022/08/29 06:28:42;;;;;;;25.48;19.55;;;15.80;80.30;;;;;;5068724;28;20032;-67
2022/08/29 06:31:10;;;;;;;24.65;20.52;;;15.80;82.70;;;;;;5073253;28;20326;-67
2022/08/29 06:33:36;;;;;;;24.75;17.40;;;15.80;85.00;;;;;;5073644;28;20016;-66
2022/08/29 06:36:03;;;;;;;20.05;17.35;;;15.80;87.00;;;;;;5074760;28;20031;-67
2022/08/29 06:38:29;;;;;;;22.85;16.92;;;16.00;87.70;;;;;;5071786;28;20322;-66
2022/08/29 06:40:55;;;;;;;20.45;16.92;;;16.20;89.50;;;;;;5069444;28;20028;-66
2022/08/29 06:43:21;;;;;;;23.52;17.65;;;16.40;89.90;;;;;;5070578;28;20033;-66
2022/08/29 06:45:47;;;;;;;22.95;17.15;;;16.50;92.30;;;;;;5072905;28;20036;-65
2022/08/29 06:48:13;;;;;;;18.75;15.85;;;16.60;94.40;;;;;;5074310;28;20024;-66
2022/08/29 06:50:39;;;;;;;21.90;16.58;;;16.80;94.10;;;;;;5076012;28;20052;-67
2022/08/29 06:53:06;;;;;;;21.42;15.93;;;16.90;96.10;;;;;;5070614;28;20052;-67
2022/08/29 06:55:36;;;;;;;20.27;16.48;;;17.00;96.80;;;;;;5074944;28;20016;-68
2022/08/29 06:58:03;;;;;;;21.35;16.40;;;17.10;96.90;;;;;;5074507;28;20547;-67
2022/08/29 07:00:28;;;;;;;20.67;16.13;;;17.30;97.30;;;;;;5073223;28;20036;-67
2022/08/29 07:02:54;;;;;;;20.50;15.55;;;17.40;97.40;;;;;;5075844;28;20325;-67
2022/08/29 07:05:22;;;;;;;19.15;15.25;;;17.60;98.00;;;;;;5071648;28;20379;-67
2022/08/29 07:07:48;;;;;;;17.88;13.55;;;17.80;98.00;;;;;;5055260;28;20037;-67
2022/08/29 07:10:14;;;;;;;19.55;13.80;;;17.80;98.00;;;;;;5052930;28;20459;-67
2022/08/29 07:12:42;;;;;;;17.63;13.68;;;18.00;98.00;;;;;;5070103;28;20060;-67
2022/08/29 07:15:08;;;;;;;20.15;12.75;;;18.30;98.00;;;;;;5076115;28;20012;-67
2022/08/29 07:17:34;;;;;;;16.77;13.30;;;18.50;98.00;;;;;;5057702;28;20104;-65
2022/08/29 07:20:00;;;;;;;15.00;11.98;;;18.70;98.00;;;;;;5055736;28;20455;-67
2022/08/29 07:22:25;;;;;;;16.05;11.68;;;18.80;98.00;;;;;;5053994;28;20036;-66
2022/08/29 07:24:52;;;;;;;15.30;12.23;;;18.90;98.00;;;;;;5052610;28;21060;-66
2022/08/29 07:27:18;;;;;;;16.10;11.43;;;18.90;98.00;;;;;;5056926;28;20032;-67
2022/08/29 07:29:44;;;;;;;12.38;10.88;;;18.90;98.00;;;;;;5069485;28;20028;-66
2022/08/29 07:32:10;;;;;;;16.10;10.98;;;19.00;98.00;;;;;;5065039;28;20021;-66
2022/08/29 07:34:35;;;;;;;12.95;10.40;;;19.20;98.00;;;;;;5069820;28;20025;-66
2022/08/29 07:37:03;;;;;;;17.50;10.77;;;19.20;98.00;;;;;;5066809;28;20318;-66
2022/08/29 07:39:34;;;;;;;12.80;10.10;;;19.40;98.00;;;;;;5058754;28;20429;-66
2022/08/29 07:42:01;;;;;;;14.68;10.65;;;19.50;98.00;;;;;;5064796;28;20338;-65
2022/08/29 07:44:26;;;;;;;12.30;9.68;;;19.70;98.00;;;;;;5071300;28;20093;-67
2022/08/29 07:46:56;;;;;;;15.10;10.30;;;19.70;98.00;;;;;;5069791;28;20382;-65
2022/08/29 07:49:24;;;;;;;14.85;10.05;;;19.90;98.00;;;;;;5070987;28;20024;-66
2022/08/29 07:51:51;;;;;;;14.57;10.23;;;20.00;98.00;;;;;;5072254;28;20158;-66
2022/08/29 07:54:17;;;;;;;12.68;8.82;;;20.10;98.00;;;;;;5068586;28;20110;-68
2022/08/29 07:56:44;;;;;;;13.25;9.98;;;20.40;97.90;;;;;;5071679;28;20135;-66
2022/08/29 07:59:10;;;;;;;12.18;8.02;;;20.70;97.20;;;;;;5075274;28;20036;-65
2022/08/29 08:01:36;;;;;;;18.95;8.48;;;21.30;96.50;;;;;;5071884;28;20321;-66
2022/08/29 08:04:03;;;;;;;11.80;7.50;;;22.20;94.90;;;;;;5074832;28;20341;-66
2022/08/29 08:06:29;;;;;;;13.05;8.05;;;23.10;92.40;;;;;;5071479;28;20032;-66
2022/08/29 08:08:55;;;;;;;9.63;7.00;;;23.70;90.00;;;;;;5077098;28;20162;-66
2022/08/29 08:11:22;;;;;;;12.73;7.95;;;24.20;88.50;;;;;;5078846;28;20024;-66
2022/08/29 08:13:48;;;;;;;11.18;8.50;;;24.80;85.70;;;;;;5063531;28;20113;-66
2022/08/29 08:16:17;;;;;;;12.13;8.68;;;24.40;85.60;;;;;;5077582;28;20078;-66
2022/08/29 08:18:44;;;;;;;12.48;8.18;;;24.40;85.60;;;;;;5071184;28;20038;-65
2022/08/29 08:21:10;;;;;;;16.40;9.45;;;24.20;86.50;;;;;;5073169;28;20169;-66
2022/08/29 08:23:37;;;;;;;12.00;9.55;;;24.40;85.50;;;;;;5074841;28;20028;-66
2022/08/29 08:26:03;;;;;;;11.77;9.23;;;24.20;86.20;;;;;;5077058;28;20032;-67
2022/08/29 08:28:29;;;;;;;12.02;9.35;;;24.30;86.00;;;;;;5072261;28;20044;-66
2022/08/29 08:30:56;;;;;;;12.02;9.55;;;24.30;86.40;;;;;;5069672;28;20021;-66
2022/08/29 08:33:22;;;;;;;17.75;9.25;;;24.60;85.20;;;;;;5076677;28;20028;-66
2022/08/29 08:35:48;;;;;;;11.93;8.77;;;24.70;85.20;;;;;;5074388;28;20024;-66
2022/08/29 08:38:15;;;;;;;11.52;9.73;;;24.80;84.70;;;;;;5077581;28;20039;-66
2022/08/29 08:40:56;;;;;;;12.48;8.65;;;24.80;84.50;;;;;;5074009;28;20090;-66
2022/08/29 08:43:27;;;;;;;11.00;8.00;;;25.10;84.10;;;;;;5075226;28;20115;-66
2022/08/29 08:45:55;;;;;;;9.77;7.47;;;25.20;83.90;;;;;;5076400;28;20403;-66
2022/08/29 08:48:24;;;;;;;11.25;8.38;;;26.10;82.80;;;;;;5073305;28;20048;-66
2022/08/29 08:51:19;;;;;;;10.98;7.55;;;26.20;80.60;;;;;;5075717;28;20020;-66
2022/08/29 08:53:50;;;;;;;14.85;7.93;;;26.30;80.80;;;;;;5073507;28;20039;-66
2022/08/29 08:56:41;;;;;;;10.25;7.50;;;26.70;80.10;;;;;;5076895;28;20024;-66
2022/08/29 08:59:28;;;;;;;11.27;6.88;;;26.70;79.60;;;;;;5076487;28;20029;-66
2022/08/29 09:02:10;;;;;;;10.35;6.70;;;26.60;80.50;;;;;;5073960;28;20313;-66
2022/08/29 09:05:02;;;;;;;10.55;6.72;;;27.30;78.50;;;;;;5077286;28;20051;-66
2022/08/29 09:08:05;;;;;;;8.50;5.80;;;28.10;76.60;;;;;;5077193;28;20037;-66
2022/08/29 09:11:00;;;;;;;11.27;6.65;;;28.20;75.20;;;;;;5072013;28;20029;-66
2022/08/29 09:13:58;;;;;;;14.38;8.07;;;28.20;75.10;;;;;;5077962;28;20025;-66
2022/08/29 09:16:40;;;;;;;11.52;8.30;;;27.80;75.80;;;;;;5076912;28;20021;-66
2022/08/29 09:19:09;;;;;;;10.43;7.90;;;27.90;75.50;;;;;;5072529;28;20040;-66
2022/08/29 09:21:54;;;;;;;10.68;8.57;;;27.00;78.00;;;;;;5075875;28;20028;-66
2022/08/29 09:24:31;;;;;;;12.80;7.88;;;26.70;78.30;;;;;;5075996;28;20055;-67
2022/08/29 09:26:57;;;;;;;9.15;6.68;;;27.30;77.40;;;;;;5070430;28;20036;-66
2022/08/29 09:29:28;;;;;;;13.45;7.72;;;27.80;75.80;;;;;;5077723;28;20024;-66
2022/08/29 09:32:12;;;;;;;8.27;6.45;;;28.10;74.70;;;;;;5076331;28;20096;-66
2022/08/29 09:34:43;;;;;;;12.07;7.72;;;28.20;74.20;;;;;;5076383;28;20075;-66
2022/08/29 09:37:30;;;;;;;10.15;7.70;;;26.90;76.20;;;;;;5076619;28;20372;-65
2022/08/29 09:39:59;;;;;;;10.95;8.48;;;25.30;80.20;;;;;;5066609;28;20031;-65
2022/08/29 09:42:38;;;;;;;14.13;8.70;;;24.10;84.40;;;;;;5071224;28;20036;-65
2022/08/29 09:45:24;;;;;;;10.10;7.93;;;23.60;85.80;;;;;;5074061;28;20106;-67
2022/08/29 09:48:14;;;;;;;14.63;8.52;;;23.50;85.30;;;;;;5073040;28;20774;-65
2022/08/29 09:50:41;;;;;;;12.73;8.25;;;23.30;86.30;;;;;;5075054;28;20036;-66
2022/08/29 09:53:07;;;;;;;12.52;7.50;;;23.30;85.60;;;;;;5076916;28;20283;-66
2022/08/29 09:55:38;;;;;;;14.10;8.18;;;23.10;86.90;;;;;;5072337;28;20028;-66
2022/08/29 09:58:06;;;;;;;11.07;8.10;;;22.90;87.30;;;;;;5070646;28;20029;-66
2022/08/29 10:00:37;;;;;;;12.05;8.38;;;22.70;87.70;;;;;;5070273;28;20025;-65
2022/08/29 10:03:06;;;;;;;9.73;7.28;;;22.60;87.90;;;;;;5075428;28;20036;-66
2022/08/29 10:05:40;;;;;;;11.43;6.93;;;22.70;88.30;;;;;;5072875;28;20330;-66
2022/08/29 10:08:28;;;;;;;12.95;6.95;;;23.20;87.30;;;;;;5071412;28;20410;-66
2022/08/29 10:10:58;;;;;;;9.50;6.25;;;24.50;84.30;;;;;;5070739;28;20103;-66
2022/08/29 10:13:41;;;;;;;8.30;5.28;;;26.40;79.20;;;;;;5064301;28;20079;-66
2022/08/29 10:16:20;;;;;;;9.25;6.20;;;27.70;75.70;;;;;;5063127;28;20055;-67
2022/08/29 10:19:00;;;;;;;9.18;5.90;;;28.10;74.40;;;;;;5069198;28;20009;-66
2022/08/29 10:21:46;;;;;;;11.18;5.38;;;28.80;72.00;;;;;;5060293;28;20017;-66
2022/08/29 10:24:11;;;;;;;8.88;5.70;;;29.10;72.10;;;;;;5059903;28;20025;-65
2022/08/29 10:26:59;;;;;;;9.73;5.75;;;29.20;71.70;;;;;;5062805;28;20338;-67
2022/08/29 10:29:52;;;;;;;9.68;5.35;;;29.80;69.20;;;;;;5062803;28;20029;-65
2022/08/29 10:32:27;;;;;;;7.75;5.22;;;29.40;70.60;;;;;;5069964;28;20029;-66
2022/08/29 10:35:29;;;;;;;8.77;5.20;;;29.80;68.60;;;;;;5069862;28;20032;-67
2022/08/29 10:38:28;;;;;;;8.25;4.60;;;30.60;67.70;;;;;;5068435;28;20124;-64
2022/08/29 10:41:13;;;;;;;10.70;4.82;;;30.80;67.20;;;;;;5061056;28;20017;-66
2022/08/29 10:44:01;;;;;;;9.02;5.90;;;31.30;65.90;;;;;;5070707;28;20086;-65
2022/08/29 10:46:27;;;;;;;9.57;5.15;;;30.80;66.40;;;;;;5072355;28;20028;-66
2022/08/29 10:49:07;;;;;;;9.32;5.00;;;30.60;66.60;;;;;;5075181;28;20086;-66
2022/08/29 10:51:48;;;;;;;9.07;5.47;;;30.60;69.10;;;;;;5074300;28;20444;-66
2022/08/29 10:54:50;;;;;;;10.20;5.72;;;30.40;67.20;;;;;;5074506;28;20100;-65
2022/08/29 10:57:38;;;;;;;11.35;5.97;;;29.30;68.20;;;;;;5071955;28;20028;-66
2022/08/29 11:00:10;;;;;;;10.05;5.60;;;28.30;71.20;;;;;;5070036;28;20314;-65
2022/08/29 11:02:38;;;;;;;9.40;6.28;;;27.50;72.70;;;;;;5074595;28;20032;-66
2022/08/29 11:05:12;;;;;;;9.98;5.75;;;27.00;75.10;;;;;;5074781;28;20056;-66
2022/08/29 11:07:51;;;;;;;9.07;5.30;;;26.90;74.90;;;;;;5073659;28;20032;-66
2022/08/29 11:10:21;;;;;;;32.97;6.95;;;27.80;74.60;;;;;;5073343;28;20017;-66
2022/08/29 11:12:55;;;;;;;20.23;6.35;;;29.00;71.00;;;;;;5073210;28;20106;-66
2022/08/29 11:15:30;;;;;;;9.98;4.95;;;29.90;70.00;;;;;;5074825;28;20013;-66
2022/08/29 11:18:16;;;;;;;8.57;4.25;;;30.10;67.70;;;;;;5074386;28;20044;-66
2022/08/29 11:20:49;;;;;;;16.70;5.65;;;29.90;68.40;;;;;;5073443;28;20036;-66
2022/08/29 11:23:38;;;;;;;9.15;5.15;;;29.70;67.90;;;;;;5062913;28;20021;-66
2022/08/29 11:26:29;;;;;;;11.70;4.63;;;29.70;67.40;;;;;;5072875;28;20089;-66
2022/08/29 11:29:30;;;;;;;9.95;4.70;;;29.80;66.90;;;;;;5072523;28;20028;-66
2022/08/29 11:32:02;;;;;;;7.80;4.75;;;29.80;67.60;;;;;;5070960;28;20325;-66
2022/08/29 11:34:59;;;;;;;7.88;4.70;;;29.00;68.60;;;;;;5074421;28;20027;-66
2022/08/29 11:37:49;;;;;;;6.18;4.53;;;28.50;71.80;;;;;;5072312;28;20422;-65
2022/08/29 11:40:24;;;;;;;8.13;4.85;;;29.40;68.60;;;;;;5062447;28;20136;-65
2022/08/29 11:42:51;;;;;;;9.82;5.20;;;30.00;67.50;;;;;;5057563;28;20021;-65
2022/08/29 11:45:30;;;;;;;6.95;4.65;;;30.00;67.10;;;;;;5055921;28;20024;-64
2022/08/29 11:48:15;;;;;;;7.85;5.25;;;30.10;68.90;;;;;;5067004;28;20024;-66
2022/08/29 11:50:42;;;;;;;9.30;4.95;;;29.90;65.80;;;;;;5071139;28;20024;-66
2022/08/29 11:53:21;;;;;;;7.97;4.70;;;29.40;70.10;;;;;;5071115;28;20055;-66
2022/08/29 11:56:14;;;;;;;7.80;5.28;;;29.40;68.20;;;;;;5074237;28;20029;-66
2022/08/29 11:58:47;;;;;;;10.77;5.55;;;29.80;66.80;;;;;;5072159;28;20028;-67
2022/08/29 12:01:35;;;;;;;9.63;5.10;;;29.30;68.80;;;;;;5074177;28;20161;-66
2022/08/29 12:04:10;;;;;;;7.82;4.90;;;28.90;68.80;;;;;;5069758;28;20729;-67
2022/08/29 12:07:01;;;;;;;18.65;7.07;;;28.80;69.00;;;;;;5069544;28;20048;-66
2022/08/29 12:09:55;;;;;;;7.65;4.93;;;28.30;70.70;;;;;;5071449;28;20051;-67
2022/08/29 12:12:42;;;;;;;14.50;5.55;;;27.80;73.20;;;;;;5075228;28;20085;-65
2022/08/29 12:15:26;;;;;;;10.95;5.25;;;27.90;69.90;;;;;;5072743;28;20040;-67
2022/08/29 12:17:59;;;;;;;;;;;28.30;71.80;;;;;;5073488;28;20032;-66
2022/08/29 12:20:44;;;;;;;11.00;5.50;;;28.10;70.60;;;;;;5073269;28;19908;-66
2022/08/29 12:23:10;;;;;;;10.25;5.00;;;27.50;71.10;;;;;;5068439;28;20029;-64
2022/08/29 12:25:45;;;;;;;15.75;5.55;;;26.90;72.60;;;;;;5073733;28;20090;-68
2022/08/29 12:28:26;;;;;;;8.60;4.95;;;26.60;74.30;;;;;;5074466;28;20020;-66
2022/08/29 12:30:58;;;;;;;8.82;4.85;;;26.70;73.90;;;;;;5073514;28;20031;-65
2022/08/29 12:33:51;;;;;;;9.30;5.97;;;27.00;76.30;;;;;;5074155;28;20056;-65
2022/08/29 12:36:31;;;;;;;20.83;5.78;;;27.00;74.60;;;;;;5077486;28;20028;-65
2022/08/29 12:39:29;;;;;;;33.80;7.40;;;26.90;74.30;;;;;;5076894;28;20038;-65
2022/08/29 12:42:00;;;;;;;10.93;5.00;;;26.60;73.20;;;;;;5081590;28;20448;-66
2022/08/29 12:44:31;;;;;;;8.18;4.88;;;26.80;74.70;;;;;;5078103;28;20020;-65
2022/08/29 12:47:05;;;;;;;8.40;5.50;;;27.00;73.70;;;;;;5076380;28;20031;-67
2022/08/29 12:49:41;;;;;;;12.18;5.40;;;27.10;74.80;;;;;;5075093;28;20104;-67
2022/08/29 12:52:27;;;;;;;11.20;5.60;;;27.10;72.80;;;;;;5076157;28;20020;-66
2022/08/29 12:54:56;;;;;;;6.90;4.47;;;27.10;73.00;;;;;;5076972;28;20024;-66
2022/08/29 12:57:30;;;;;;;9.48;4.72;;;27.30;73.20;;;;;;5076521;28;20024;-66